sensor_id;sensor_type;location;lat;lon;timestamp;P1;durP1;ratioP1;P2;durP2;ratioP2
1625;SDS011;806;48.770;9.156;2022-09-01T00:01:43;6.60;;;5.30;;
1625;SDS011;806;48.770;9.156;2022-09-01T00:04:13;4.77;;;4.37;;
1625;SDS011;806;48.770;9.156;2022-09-01T00:06:43;6.00;;;4.37;;
1625;SDS011;806;48.770;9.156;2022-09-01T00:09:11;7.03;;;4.37;;
1625;SDS011;806;48.770;9.156;2022-09-01T00:11:40;4.60;;;4.20;;
1625;SDS011;806;48.770;9.156;2022-09-01T00:14:08;5.73;;;4.60;;
1625;SDS011;806;48.770;9.156;2022-09-01T00:16:37;4.40;;;4.00;;
1625;SDS011;806;48.770;9.156;2022-09-01T00:19:05;4.73;;;3.63;;
1625;SDS011;806;48.770;9.156;2022-09-01T00:21:33;5.10;;;4.63;;
1625;SDS011;806;48.770;9.156;2022-09-01T00:24:02;3.90;;;2.73;;
1625;SDS011;806;48.770;9.156;2022-09-01T00:26:30;7.40;;;5.10;;
1625;SDS011;806;48.770;9.156;2022-09-01T00:28:57;4.37;;;4.07;;
1625;SDS011;806;48.770;9.156;2022-09-01T00:31:26;4.13;;;3.73;;
1625;SDS011;806;48.770;9.156;2022-09-01T00:33:53;4.77;;;4.30;;
1625;SDS011;806;48.770;9.156;2022-09-01T00:36:21;4.87;;;4.37;;
1625;SDS011;806;48.770;9.156;2022-09-01T00:38:48;5.67;;;4.33;;
1625;SDS011;806;48.770;9.156;2022-09-01T00:41:16;5.43;;;4.93;;
1625;SDS011;806;48.770;9.156;2022-09-01T00:43:45;4.03;;;3.50;;
1625;SDS011;806;48.770;9.156;2022-09-01T00:46:15;4.67;;;4.00;;
1625;SDS011;806;48.770;9.156;2022-09-01T00:48:46;6.60;;;3.93;;
1625;SDS011;806;48.770;9.156;2022-09-01T00:51:16;5.40;;;4.90;;
1625;SDS011;806;48.770;9.156;2022-09-01T00:53:43;4.47;;;3.63;;
1625;SDS011;806;48.770;9.156;2022-09-01T00:56:11;5.47;;;4.43;;
1625;SDS011;806;48.770;9.156;2022-09-01T00:58:42;5.47;;;4.97;;
1625;SDS011;806;48.770;9.156;2022-09-01T01:01:09;5.10;;;4.20;;
1625;SDS011;806;48.770;9.156;2022-09-01T01:03:37;4.47;;;4.07;;
1625;SDS011;806;48.770;9.156;2022-09-01T01:06:07;7.30;;;5.23;;
1625;SDS011;806;48.770;9.156;2022-09-01T01:08:39;4.87;;;4.47;;
1625;SDS011;806;48.770;9.156;2022-09-01T01:11:13;4.27;;;3.83;;
1625;SDS011;806;48.770;9.156;2022-09-01T01:13:46;4.50;;;4.13;;
1625;SDS011;806;48.770;9.156;2022-09-01T01:16:15;5.80;;;3.77;;
1625;SDS011;806;48.770;9.156;2022-09-01T01:18:42;4.30;;;3.70;;
1625;SDS011;806;48.770;9.156;2022-09-01T01:21:12;7.03;;;4.30;;
1625;SDS011;806;48.770;9.156;2022-09-01T01:24:21;3.93;;;3.63;;
1625;SDS011;806;48.770;9.156;2022-09-01T01:26:50;4.57;;;4.17;;
1625;SDS011;806;48.770;9.156;2022-09-01T01:29:18;4.50;;;4.10;;
1625;SDS011;806;48.770;9.156;2022-09-01T01:31:45;5.00;;;4.03;;
1625;SDS011;806;48.770;9.156;2022-09-01T01:34:14;4.87;;;4.00;;
1625;SDS011;806;48.770;9.156;2022-09-01T01:36:42;5.50;;;3.70;;
1625;SDS011;806;48.770;9.156;2022-09-01T01:39:10;5.37;;;4.20;;
1625;SDS011;806;48.770;9.156;2022-09-01T01:41:41;4.67;;;3.60;;
1625;SDS011;806;48.770;9.156;2022-09-01T01:44:13;5.10;;;3.93;;
1625;SDS011;806;48.770;9.156;2022-09-01T01:46:43;5.10;;;4.00;;
1625;SDS011;806;48.770;9.156;2022-09-01T01:49:14;7.40;;;4.13;;
1625;SDS011;806;48.770;9.156;2022-09-01T01:51:44;4.20;;;3.30;;
1625;SDS011;806;48.770;9.156;2022-09-01T01:54:12;5.70;;;4.33;;
1625;SDS011;806;48.770;9.156;2022-09-01T01:56:45;4.27;;;3.87;;
1625;SDS011;806;48.770;9.156;2022-09-01T01:59:12;5.07;;;3.50;;
1625;SDS011;806;48.770;9.156;2022-09-01T02:01:40;4.60;;;4.20;;
1625;SDS011;806;48.770;9.156;2022-09-01T02:04:08;4.97;;;4.40;;
1625;SDS011;806;48.770;9.156;2022-09-01T02:06:36;7.40;;;3.20;;
1625;SDS011;806;48.770;9.156;2022-09-01T02:09:05;5.03;;;4.27;;
1625;SDS011;806;48.770;9.156;2022-09-01T02:11:33;3.80;;;3.47;;
1625;SDS011;806;48.770;9.156;2022-09-01T02:14:04;5.40;;;4.00;;
1625;SDS011;806;48.770;9.156;2022-09-01T02:16:32;5.97;;;3.50;;
1625;SDS011;806;48.770;9.156;2022-09-01T02:19:01;4.23;;;3.80;;
1625;SDS011;806;48.770;9.156;2022-09-01T02:21:31;3.80;;;3.40;;
1625;SDS011;806;48.770;9.156;2022-09-01T02:23:59;6.20;;;3.90;;
1625;SDS011;806;48.770;9.156;2022-09-01T02:26:28;4.73;;;3.50;;
1625;SDS011;806;48.770;9.156;2022-09-01T02:29:00;3.77;;;3.37;;
1625;SDS011;806;48.770;9.156;2022-09-01T02:31:31;11.03;;;4.57;;
1625;SDS011;806;48.770;9.156;2022-09-01T02:33:59;4.57;;;3.73;;
1625;SDS011;806;48.770;9.156;2022-09-01T02:36:26;3.53;;;3.23;;
1625;SDS011;806;48.770;9.156;2022-09-01T02:38:56;4.60;;;4.20;;
1625;SDS011;806;48.770;9.156;2022-09-01T02:41:23;6.20;;;4.03;;
1625;SDS011;806;48.770;9.156;2022-09-01T02:43:53;5.73;;;2.90;;
1625;SDS011;806;48.770;9.156;2022-09-01T02:46:22;4.53;;;4.13;;
1625;SDS011;806;48.770;9.156;2022-09-01T02:48:50;5.40;;;3.37;;
1625;SDS011;806;48.770;9.156;2022-09-01T02:51:18;4.43;;;3.97;;
1625;SDS011;806;48.770;9.156;2022-09-01T02:53:49;5.60;;;4.73;;
1625;SDS011;806;48.770;9.156;2022-09-01T02:56:18;6.57;;;4.07;;
1625;SDS011;806;48.770;9.156;2022-09-01T02:58:47;4.80;;;3.77;;
1625;SDS011;806;48.770;9.156;2022-09-01T03:01:15;5.83;;;4.40;;
1625;SDS011;806;48.770;9.156;2022-09-01T03:03:47;7.63;;;5.07;;
1625;SDS011;806;48.770;9.156;2022-09-01T03:06:14;4.23;;;3.50;;
1625;SDS011;806;48.770;9.156;2022-09-01T03:08:45;6.43;;;4.13;;
1625;SDS011;806;48.770;9.156;2022-09-01T03:11:12;6.27;;;3.53;;
1625;SDS011;806;48.770;9.156;2022-09-01T03:13:39;4.07;;;3.70;;
1625;SDS011;806;48.770;9.156;2022-09-01T03:16:07;4.17;;;3.73;;
1625;SDS011;806;48.770;9.156;2022-09-01T03:18:35;5.47;;;4.30;;
1625;SDS011;806;48.770;9.156;2022-09-01T03:21:04;5.63;;;3.90;;
1625;SDS011;806;48.770;9.156;2022-09-01T03:23:32;4.80;;;3.90;;
1625;SDS011;806;48.770;9.156;2022-09-01T03:25:59;3.87;;;3.47;;
1625;SDS011;806;48.770;9.156;2022-09-01T03:28:27;3.47;;;3.10;;
1625;SDS011;806;48.770;9.156;2022-09-01T03:30:55;4.23;;;3.77;;
1625;SDS011;806;48.770;9.156;2022-09-01T03:33:23;4.40;;;2.90;;
1625;SDS011;806;48.770;9.156;2022-09-01T03:35:51;4.90;;;4.50;;
1625;SDS011;806;48.770;9.156;2022-09-01T03:38:20;6.20;;;3.87;;
1625;SDS011;806;48.770;9.156;2022-09-01T03:40:48;5.40;;;4.10;;
1625;SDS011;806;48.770;9.156;2022-09-01T03:43:16;7.37;;;4.07;;
1625;SDS011;806;48.770;9.156;2022-09-01T03:45:47;5.43;;;3.67;;
1625;SDS011;806;48.770;9.156;2022-09-01T03:48:14;8.83;;;4.80;;
1625;SDS011;806;48.770;9.156;2022-09-01T03:50:42;5.67;;;5.13;;
1625;SDS011;806;48.770;9.156;2022-09-01T03:53:11;7.00;;;4.47;;
1625;SDS011;806;48.770;9.156;2022-09-01T03:55:42;7.17;;;5.50;;
1625;SDS011;806;48.770;9.156;2022-09-01T03:58:11;7.70;;;5.13;;
1625;SDS011;806;48.770;9.156;2022-09-01T04:00:43;7.07;;;5.40;;
1625;SDS011;806;48.770;9.156;2022-09-01T04:03:12;5.80;;;5.20;;
1625;SDS011;806;48.770;9.156;2022-09-01T04:05:41;6.03;;;5.53;;
1625;SDS011;806;48.770;9.156;2022-09-01T04:08:10;9.37;;;7.17;;
1625;SDS011;806;48.770;9.156;2022-09-01T04:10:43;6.00;;;5.50;;
1625;SDS011;806;48.770;9.156;2022-09-01T04:13:14;10.87;;;5.67;;
1625;SDS011;806;48.770;9.156;2022-09-01T04:15:41;6.03;;;4.90;;
1625;SDS011;806;48.770;9.156;2022-09-01T04:18:08;5.70;;;5.10;;
1625;SDS011;806;48.770;9.156;2022-09-01T04:20:35;7.03;;;5.93;;
1625;SDS011;806;48.770;9.156;2022-09-01T04:23:12;6.97;;;6.13;;
1625;SDS011;806;48.770;9.156;2022-09-01T04:25:42;7.60;;;5.47;;
1625;SDS011;806;48.770;9.156;2022-09-01T04:28:10;9.00;;;5.43;;
1625;SDS011;806;48.770;9.156;2022-09-01T04:30:47;5.83;;;5.27;;
1625;SDS011;806;48.770;9.156;2022-09-01T04:33:15;5.13;;;4.33;;
1625;SDS011;806;48.770;9.156;2022-09-01T04:35:42;7.10;;;5.50;;
1625;SDS011;806;48.770;9.156;2022-09-01T04:38:09;6.10;;;5.50;;
1625;SDS011;806;48.770;9.156;2022-09-01T04:40:41;5.50;;;4.40;;
1625;SDS011;806;48.770;9.156;2022-09-01T04:43:08;4.63;;;4.17;;
1625;SDS011;806;48.770;9.156;2022-09-01T04:45:36;6.40;;;4.77;;
1625;SDS011;806;48.770;9.156;2022-09-01T04:48:03;5.30;;;3.90;;
1625;SDS011;806;48.770;9.156;2022-09-01T04:50:31;6.43;;;4.67;;
1625;SDS011;806;48.770;9.156;2022-09-01T04:52:59;7.77;;;5.87;;
1625;SDS011;806;48.770;9.156;2022-09-01T04:55:28;6.13;;;4.03;;
1625;SDS011;806;48.770;9.156;2022-09-01T04:57:58;8.93;;;5.07;;
1625;SDS011;806;48.770;9.156;2022-09-01T05:00:29;5.27;;;4.20;;
1625;SDS011;806;48.770;9.156;2022-09-01T05:02:58;5.13;;;3.83;;
1625;SDS011;806;48.770;9.156;2022-09-01T05:05:29;6.20;;;4.77;;
1625;SDS011;806;48.770;9.156;2022-09-01T05:08:03;5.17;;;4.33;;
1625;SDS011;806;48.770;9.156;2022-09-01T05:10:31;7.70;;;4.50;;
1625;SDS011;806;48.770;9.156;2022-09-01T05:13:03;8.40;;;6.13;;
1625;SDS011;806;48.770;9.156;2022-09-01T05:15:34;6.33;;;5.10;;
1625;SDS011;806;48.770;9.156;2022-09-01T05:18:01;7.10;;;5.17;;
1625;SDS011;806;48.770;9.156;2022-09-01T05:20:35;5.60;;;5.10;;
1625;SDS011;806;48.770;9.156;2022-09-01T05:23:03;5.40;;;3.60;;
1625;SDS011;806;48.770;9.156;2022-09-01T05:25:36;5.37;;;3.90;;
1625;SDS011;806;48.770;9.156;2022-09-01T05:28:06;6.23;;;5.03;;
1625;SDS011;806;48.770;9.156;2022-09-01T05:30:34;4.47;;;3.17;;
1625;SDS011;806;48.770;9.156;2022-09-01T05:33:03;5.20;;;4.70;;
1625;SDS011;806;48.770;9.156;2022-09-01T05:35:34;4.90;;;4.40;;
1625;SDS011;806;48.770;9.156;2022-09-01T05:38:02;7.97;;;5.27;;
1625;SDS011;806;48.770;9.156;2022-09-01T05:40:32;5.10;;;4.57;;
1625;SDS011;806;48.770;9.156;2022-09-01T05:43:06;7.80;;;4.60;;
1625;SDS011;806;48.770;9.156;2022-09-01T05:45:36;7.73;;;4.77;;
1625;SDS011;806;48.770;9.156;2022-09-01T05:48:07;5.87;;;4.70;;
1625;SDS011;806;48.770;9.156;2022-09-01T05:50:34;9.10;;;6.30;;
1625;SDS011;806;48.770;9.156;2022-09-01T05:53:04;6.33;;;5.73;;
1625;SDS011;806;48.770;9.156;2022-09-01T05:55:35;7.87;;;6.97;;
1625;SDS011;806;48.770;9.156;2022-09-01T05:58:02;8.40;;;5.13;;
1625;SDS011;806;48.770;9.156;2022-09-01T06:00:31;7.57;;;4.90;;
1625;SDS011;806;48.770;9.156;2022-09-01T06:02:59;6.23;;;5.43;;
1625;SDS011;806;48.770;9.156;2022-09-01T06:05:28;6.50;;;5.83;;
1625;SDS011;806;48.770;9.156;2022-09-01T06:07:57;12.90;;;9.60;;
1625;SDS011;806;48.770;9.156;2022-09-01T06:10:24;7.87;;;7.10;;
1625;SDS011;806;48.770;9.156;2022-09-01T06:12:52;14.17;;;6.93;;
1625;SDS011;806;48.770;9.156;2022-09-01T06:15:19;7.90;;;6.70;;
1625;SDS011;806;48.770;9.156;2022-09-01T06:17:48;6.97;;;5.40;;
1625;SDS011;806;48.770;9.156;2022-09-01T06:20:15;7.07;;;6.37;;
1625;SDS011;806;48.770;9.156;2022-09-01T06:22:42;3.90;;;3.43;;
1625;SDS011;806;48.770;9.156;2022-09-01T06:25:10;7.70;;;6.37;;
1625;SDS011;806;48.770;9.156;2022-09-01T06:27:38;4.80;;;3.80;;
1625;SDS011;806;48.770;9.156;2022-09-01T06:30:09;7.93;;;5.70;;
1625;SDS011;806;48.770;9.156;2022-09-01T06:32:40;5.97;;;5.40;;
1625;SDS011;806;48.770;9.156;2022-09-01T06:35:10;5.53;;;4.87;;
1625;SDS011;806;48.770;9.156;2022-09-01T06:37:37;6.27;;;5.67;;
1625;SDS011;806;48.770;9.156;2022-09-01T06:40:07;5.50;;;4.77;;
1625;SDS011;806;48.770;9.156;2022-09-01T06:42:41;7.40;;;5.70;;
1625;SDS011;806;48.770;9.156;2022-09-01T06:45:09;4.40;;;3.77;;
1625;SDS011;806;48.770;9.156;2022-09-01T06:47:37;5.40;;;4.90;;
1625;SDS011;806;48.770;9.156;2022-09-01T06:50:04;4.53;;;4.13;;
1625;SDS011;806;48.770;9.156;2022-09-01T06:52:34;5.43;;;4.90;;
1625;SDS011;806;48.770;9.156;2022-09-01T06:55:03;5.60;;;4.57;;
1625;SDS011;806;48.770;9.156;2022-09-01T06:57:31;8.40;;;4.30;;
1625;SDS011;806;48.770;9.156;2022-09-01T07:00:00;4.47;;;3.83;;
1625;SDS011;806;48.770;9.156;2022-09-01T07:02:39;5.70;;;4.63;;
1625;SDS011;806;48.770;9.156;2022-09-01T07:05:09;8.30;;;5.40;;
1625;SDS011;806;48.770;9.156;2022-09-01T07:07:39;5.20;;;3.97;;
1625;SDS011;806;48.770;9.156;2022-09-01T07:10:07;4.97;;;3.90;;
1625;SDS011;806;48.770;9.156;2022-09-01T07:12:34;5.70;;;3.47;;
1625;SDS011;806;48.770;9.156;2022-09-01T07:15:02;6.33;;;3.80;;
1625;SDS011;806;48.770;9.156;2022-09-01T07:17:31;6.33;;;5.63;;
1625;SDS011;806;48.770;9.156;2022-09-01T07:19:58;6.80;;;4.33;;
1625;SDS011;806;48.770;9.156;2022-09-01T07:22:25;4.77;;;2.87;;
1625;SDS011;806;48.770;9.156;2022-09-01T07:24:53;3.57;;;2.87;;
1625;SDS011;806;48.770;9.156;2022-09-01T07:27:21;5.03;;;3.60;;
1625;SDS011;806;48.770;9.156;2022-09-01T07:29:52;5.43;;;4.13;;
1625;SDS011;806;48.770;9.156;2022-09-01T07:32:21;2.77;;;2.30;;
1625;SDS011;806;48.770;9.156;2022-09-01T07:34:48;8.50;;;3.13;;
1625;SDS011;806;48.770;9.156;2022-09-01T07:37:16;2.40;;;1.80;;
1625;SDS011;806;48.770;9.156;2022-09-01T07:39:47;4.20;;;2.70;;
1625;SDS011;806;48.770;9.156;2022-09-01T07:42:16;3.20;;;2.67;;
1625;SDS011;806;48.770;9.156;2022-09-01T07:44:45;3.73;;;2.20;;
1625;SDS011;806;48.770;9.156;2022-09-01T07:47:12;5.23;;;3.87;;
1625;SDS011;806;48.770;9.156;2022-09-01T07:49:39;4.03;;;2.40;;
1625;SDS011;806;48.770;9.156;2022-09-01T07:52:06;6.57;;;4.47;;
1625;SDS011;806;48.770;9.156;2022-09-01T07:54:33;2.00;;;1.73;;
1625;SDS011;806;48.770;9.156;2022-09-01T07:57:01;2.53;;;2.10;;
1625;SDS011;806;48.770;9.156;2022-09-01T07:59:30;2.67;;;2.47;;
1625;SDS011;806;48.770;9.156;2022-09-01T08:01:59;2.67;;;1.97;;
1625;SDS011;806;48.770;9.156;2022-09-01T08:04:28;3.60;;;2.83;;
1625;SDS011;806;48.770;9.156;2022-09-01T08:06:55;1.70;;;1.53;;
1625;SDS011;806;48.770;9.156;2022-09-01T08:09:23;2.20;;;2.00;;
1625;SDS011;806;48.770;9.156;2022-09-01T08:11:51;2.17;;;1.70;;
1625;SDS011;806;48.770;9.156;2022-09-01T08:14:19;3.67;;;2.80;;
1625;SDS011;806;48.770;9.156;2022-09-01T08:16:48;3.13;;;1.80;;
1625;SDS011;806;48.770;9.156;2022-09-01T08:19:15;2.57;;;1.77;;
1625;SDS011;806;48.770;9.156;2022-09-01T08:21:43;2.10;;;1.63;;
1625;SDS011;806;48.770;9.156;2022-09-01T08:24:09;3.23;;;2.47;;
1625;SDS011;806;48.770;9.156;2022-09-01T08:26:38;3.20;;;1.67;;
1625;SDS011;806;48.770;9.156;2022-09-01T08:29:07;1.60;;;1.40;;
1625;SDS011;806;48.770;9.156;2022-09-01T08:31:34;2.00;;;1.67;;
1625;SDS011;806;48.770;9.156;2022-09-01T08:34:02;2.87;;;2.13;;
1625;SDS011;806;48.770;9.156;2022-09-01T08:36:30;2.10;;;1.43;;
1625;SDS011;806;48.770;9.156;2022-09-01T08:38:57;2.50;;;1.70;;
1625;SDS011;806;48.770;9.156;2022-09-01T08:41:29;2.30;;;1.40;;
1625;SDS011;806;48.770;9.156;2022-09-01T08:44:08;2.30;;;1.97;;
1625;SDS011;806;48.770;9.156;2022-09-01T08:46:41;1.70;;;1.50;;
1625;SDS011;806;48.770;9.156;2022-09-01T08:49:14;1.93;;;1.70;;
1625;SDS011;806;48.770;9.156;2022-09-01T08:51:45;2.10;;;1.60;;
1625;SDS011;806;48.770;9.156;2022-09-01T08:54:17;5.10;;;1.87;;
1625;SDS011;806;48.770;9.156;2022-09-01T08:56:49;3.13;;;1.50;;
1625;SDS011;806;48.770;9.156;2022-09-01T08:59:19;2.83;;;2.20;;
1625;SDS011;806;48.770;9.156;2022-09-01T09:01:48;2.00;;;1.80;;
1625;SDS011;806;48.770;9.156;2022-09-01T09:04:26;2.00;;;1.50;;
1625;SDS011;806;48.770;9.156;2022-09-01T09:07:04;2.07;;;1.87;;
1625;SDS011;806;48.770;9.156;2022-09-01T09:09:38;4.00;;;2.23;;
1625;SDS011;806;48.770;9.156;2022-09-01T09:12:17;2.20;;;1.33;;
1625;SDS011;806;48.770;9.156;2022-09-01T09:14:59;3.93;;;1.90;;
1625;SDS011;806;48.770;9.156;2022-09-01T09:17:35;2.30;;;1.80;;
1625;SDS011;806;48.770;9.156;2022-09-01T09:20:09;2.37;;;1.30;;
1625;SDS011;806;48.770;9.156;2022-09-01T09:22:36;2.47;;;2.00;;
1625;SDS011;806;48.770;9.156;2022-09-01T09:25:05;2.37;;;1.83;;
1625;SDS011;806;48.770;9.156;2022-09-01T09:27:35;1.70;;;1.30;;
1625;SDS011;806;48.770;9.156;2022-09-01T09:30:04;1.90;;;1.60;;
1625;SDS011;806;48.770;9.156;2022-09-01T09:35:22;1.80;;;1.20;;
1625;SDS011;806;48.770;9.156;2022-09-01T09:37:56;1.97;;;1.33;;
1625;SDS011;806;48.770;9.156;2022-09-01T09:40:55;1.67;;;1.47;;
1625;SDS011;806;48.770;9.156;2022-09-01T09:43:26;2.00;;;1.40;;
1625;SDS011;806;48.770;9.156;2022-09-01T09:48:49;2.37;;;1.27;;
1625;SDS011;806;48.770;9.156;2022-09-01T09:51:35;2.00;;;1.50;;
1625;SDS011;806;48.770;9.156;2022-09-01T09:54:10;1.70;;;1.30;;
1625;SDS011;806;48.770;9.156;2022-09-01T09:56:39;1.70;;;1.20;;
1625;SDS011;806;48.770;9.156;2022-09-01T09:59:15;1.50;;;1.10;;
1625;SDS011;806;48.770;9.156;2022-09-01T10:01:44;1.60;;;1.20;;
1625;SDS011;806;48.770;9.156;2022-09-01T10:04:18;1.47;;;1.17;;
1625;SDS011;806;48.770;9.156;2022-09-01T10:07:01;1.30;;;1.10;;
1625;SDS011;806;48.770;9.156;2022-09-01T10:09:50;1.37;;;1.10;;
1625;SDS011;806;48.770;9.156;2022-09-01T10:12:21;1.90;;;1.10;;
1625;SDS011;806;48.770;9.156;2022-09-01T10:14:51;1.53;;;1.40;;
1625;SDS011;806;48.770;9.156;2022-09-01T10:17:22;1.40;;;1.10;;
1625;SDS011;806;48.770;9.156;2022-09-01T10:19:55;1.70;;;1.20;;
1625;SDS011;806;48.770;9.156;2022-09-01T10:22:31;1.30;;;1.13;;
1625;SDS011;806;48.770;9.156;2022-09-01T10:24:58;1.50;;;1.30;;
1625;SDS011;806;48.770;9.156;2022-09-01T10:27:27;1.20;;;0.90;;
1625;SDS011;806;48.770;9.156;2022-09-01T10:30:00;1.60;;;1.00;;
1625;SDS011;806;48.770;9.156;2022-09-01T10:32:31;1.43;;;1.10;;
1625;SDS011;806;48.770;9.156;2022-09-01T10:35:03;1.27;;;0.93;;
1625;SDS011;806;48.770;9.156;2022-09-01T10:37:32;1.50;;;0.97;;
1625;SDS011;806;48.770;9.156;2022-09-01T10:40:13;2.40;;;0.90;;
1625;SDS011;806;48.770;9.156;2022-09-01T10:42:44;1.40;;;1.10;;
1625;SDS011;806;48.770;9.156;2022-09-01T10:45:28;1.37;;;1.00;;
1625;SDS011;806;48.770;9.156;2022-09-01T10:50:49;1.60;;;1.40;;
1625;SDS011;806;48.770;9.156;2022-09-01T10:53:38;1.73;;;0.90;;
1625;SDS011;806;48.770;9.156;2022-09-01T10:56:09;1.87;;;1.37;;
1625;SDS011;806;48.770;9.156;2022-09-01T11:07:37;1.10;;;0.90;;
1625;SDS011;806;48.770;9.156;2022-09-01T11:10:09;1.10;;;0.90;;
1625;SDS011;806;48.770;9.156;2022-09-01T11:13:07;1.07;;;0.83;;
1625;SDS011;806;48.770;9.156;2022-09-01T11:15:49;1.00;;;0.80;;
1625;SDS011;806;48.770;9.156;2022-09-01T11:18:22;1.10;;;1.00;;
1625;SDS011;806;48.770;9.156;2022-09-01T11:20:51;1.23;;;0.90;;
1625;SDS011;806;48.770;9.156;2022-09-01T11:23:21;0.97;;;0.80;;
1625;SDS011;806;48.770;9.156;2022-09-01T11:25:52;1.00;;;0.90;;
1625;SDS011;806;48.770;9.156;2022-09-01T11:31:23;1.40;;;1.10;;
1625;SDS011;806;48.770;9.156;2022-09-01T11:39:38;0.93;;;0.83;;
1625;SDS011;806;48.770;9.156;2022-09-01T11:42:15;1.70;;;1.10;;
1625;SDS011;806;48.770;9.156;2022-09-01T11:44:46;1.03;;;0.90;;
1625;SDS011;806;48.770;9.156;2022-09-01T11:47:17;1.10;;;0.90;;
1625;SDS011;806;48.770;9.156;2022-09-01T11:49:48;1.17;;;0.80;;
1625;SDS011;806;48.770;9.156;2022-09-01T11:52:19;1.00;;;0.83;;
1625;SDS011;806;48.770;9.156;2022-09-01T11:54:48;1.10;;;0.80;;
1625;SDS011;806;48.770;9.156;2022-09-01T11:57:18;1.50;;;0.77;;
1625;SDS011;806;48.770;9.156;2022-09-01T11:59:51;0.97;;;0.80;;
1625;SDS011;806;48.770;9.156;2022-09-01T12:02:19;1.03;;;0.90;;
1625;SDS011;806;48.770;9.156;2022-09-01T12:04:49;0.97;;;0.83;;
1625;SDS011;806;48.770;9.156;2022-09-01T12:07:25;1.03;;;0.70;;
1625;SDS011;806;48.770;9.156;2022-09-01T12:09:59;1.10;;;0.80;;
1625;SDS011;806;48.770;9.156;2022-09-01T12:12:30;1.20;;;1.00;;
1625;SDS011;806;48.770;9.156;2022-09-01T12:14:59;0.90;;;0.80;;
1625;SDS011;806;48.770;9.156;2022-09-01T12:17:28;1.10;;;0.90;;
1625;SDS011;806;48.770;9.156;2022-09-01T12:19:55;1.03;;;0.80;;
1625;SDS011;806;48.770;9.156;2022-09-01T12:22:43;1.00;;;0.70;;
1625;SDS011;806;48.770;9.156;2022-09-01T12:25:16;1.00;;;0.73;;
1625;SDS011;806;48.770;9.156;2022-09-01T12:27:47;0.93;;;0.73;;
1625;SDS011;806;48.770;9.156;2022-09-01T12:30:15;1.30;;;0.80;;
1625;SDS011;806;48.770;9.156;2022-09-01T12:32:44;1.23;;;0.87;;
1625;SDS011;806;48.770;9.156;2022-09-01T12:35:13;0.90;;;0.80;;
1625;SDS011;806;48.770;9.156;2022-09-01T12:37:43;1.03;;;0.90;;
1625;SDS011;806;48.770;9.156;2022-09-01T12:40:22;1.00;;;0.90;;
1625;SDS011;806;48.770;9.156;2022-09-01T12:42:52;1.40;;;0.83;;
1625;SDS011;806;48.770;9.156;2022-09-01T12:45:35;1.03;;;0.90;;
1625;SDS011;806;48.770;9.156;2022-09-01T12:48:04;1.00;;;0.80;;
1625;SDS011;806;48.770;9.156;2022-09-01T12:50:36;1.00;;;0.70;;
1625;SDS011;806;48.770;9.156;2022-09-01T12:53:17;1.20;;;0.90;;
1625;SDS011;806;48.770;9.156;2022-09-01T12:56:00;2.10;;;0.80;;
1625;SDS011;806;48.770;9.156;2022-09-01T12:58:33;1.67;;;0.83;;
1625;SDS011;806;48.770;9.156;2022-09-01T13:01:02;0.90;;;0.70;;
1625;SDS011;806;48.770;9.156;2022-09-01T13:03:32;0.90;;;0.70;;
1625;SDS011;806;48.770;9.156;2022-09-01T13:06:00;0.90;;;0.80;;
1625;SDS011;806;48.770;9.156;2022-09-01T13:08:29;0.90;;;0.80;;
1625;SDS011;806;48.770;9.156;2022-09-01T13:11:00;0.80;;;0.70;;
1625;SDS011;806;48.770;9.156;2022-09-01T13:13:32;1.13;;;0.80;;
1625;SDS011;806;48.770;9.156;2022-09-01T13:16:01;0.90;;;0.80;;
1625;SDS011;806;48.770;9.156;2022-09-01T13:18:36;0.80;;;0.63;;
1625;SDS011;806;48.770;9.156;2022-09-01T13:21:04;1.00;;;0.70;;
1625;SDS011;806;48.770;9.156;2022-09-01T13:23:32;0.90;;;0.80;;
1625;SDS011;806;48.770;9.156;2022-09-01T13:25:59;0.80;;;0.70;;
1625;SDS011;806;48.770;9.156;2022-09-01T13:28:26;1.87;;;0.80;;
1625;SDS011;806;48.770;9.156;2022-09-01T13:30:55;0.97;;;0.70;;
1625;SDS011;806;48.770;9.156;2022-09-01T13:33:24;0.80;;;0.70;;
1625;SDS011;806;48.770;9.156;2022-09-01T13:35:51;1.23;;;0.90;;
1625;SDS011;806;48.770;9.156;2022-09-01T13:38:20;1.00;;;0.80;;
1625;SDS011;806;48.770;9.156;2022-09-01T13:40:47;0.80;;;0.70;;
1625;SDS011;806;48.770;9.156;2022-09-01T13:43:16;1.03;;;0.80;;
1625;SDS011;806;48.770;9.156;2022-09-01T13:45:44;1.00;;;0.70;;
1625;SDS011;806;48.770;9.156;2022-09-01T13:48:13;1.30;;;0.70;;
1625;SDS011;806;48.770;9.156;2022-09-01T13:50:41;1.67;;;0.90;;
1625;SDS011;806;48.770;9.156;2022-09-01T13:53:09;1.47;;;0.90;;
1625;SDS011;806;48.770;9.156;2022-09-01T13:55:37;0.90;;;0.80;;
1625;SDS011;806;48.770;9.156;2022-09-01T13:58:05;1.00;;;0.90;;
1625;SDS011;806;48.770;9.156;2022-09-01T14:00:34;1.00;;;0.70;;
1625;SDS011;806;48.770;9.156;2022-09-01T14:03:03;0.80;;;0.73;;
1625;SDS011;806;48.770;9.156;2022-09-01T14:05:34;2.53;;;0.77;;
1625;SDS011;806;48.770;9.156;2022-09-01T14:08:03;0.93;;;0.83;;
1625;SDS011;806;48.770;9.156;2022-09-01T14:10:32;1.23;;;0.90;;
1625;SDS011;806;48.770;9.156;2022-09-01T14:13:03;0.90;;;0.67;;
1625;SDS011;806;48.770;9.156;2022-09-01T14:15:30;1.20;;;0.70;;
1625;SDS011;806;48.770;9.156;2022-09-01T14:18:00;1.20;;;0.80;;
1625;SDS011;806;48.770;9.156;2022-09-01T14:20:32;1.00;;;0.90;;
1625;SDS011;806;48.770;9.156;2022-09-01T14:23:03;1.00;;;0.80;;
1625;SDS011;806;48.770;9.156;2022-09-01T14:25:32;0.90;;;0.80;;
1625;SDS011;806;48.770;9.156;2022-09-01T14:28:02;1.00;;;0.90;;
1625;SDS011;806;48.770;9.156;2022-09-01T14:30:31;1.23;;;0.90;;
1625;SDS011;806;48.770;9.156;2022-09-01T14:33:02;1.20;;;1.00;;
1625;SDS011;806;48.770;9.156;2022-09-01T14:35:29;1.10;;;0.83;;
1625;SDS011;806;48.770;9.156;2022-09-01T14:37:59;2.07;;;0.90;;
1625;SDS011;806;48.770;9.156;2022-09-01T14:40:29;2.33;;;1.00;;
1625;SDS011;806;48.770;9.156;2022-09-01T14:42:56;1.30;;;0.80;;
1625;SDS011;806;48.770;9.156;2022-09-01T14:45:24;0.77;;;0.60;;
1625;SDS011;806;48.770;9.156;2022-09-01T14:47:53;1.00;;;0.80;;
1625;SDS011;806;48.770;9.156;2022-09-01T14:50:22;1.00;;;0.80;;
1625;SDS011;806;48.770;9.156;2022-09-01T14:52:51;0.90;;;0.73;;
1625;SDS011;806;48.770;9.156;2022-09-01T14:55:21;0.97;;;0.80;;
1625;SDS011;806;48.770;9.156;2022-09-01T14:57:49;1.00;;;0.80;;
1625;SDS011;806;48.770;9.156;2022-09-01T15:00:17;1.33;;;0.80;;
1625;SDS011;806;48.770;9.156;2022-09-01T15:02:44;1.00;;;0.87;;
1625;SDS011;806;48.770;9.156;2022-09-01T15:05:11;0.93;;;0.83;;
1625;SDS011;806;48.770;9.156;2022-09-01T15:07:40;0.70;;;0.70;;
1625;SDS011;806;48.770;9.156;2022-09-01T15:10:09;1.00;;;0.83;;
1625;SDS011;806;48.770;9.156;2022-09-01T15:12:39;1.77;;;0.70;;
1625;SDS011;806;48.770;9.156;2022-09-01T15:15:07;0.80;;;0.70;;
1625;SDS011;806;48.770;9.156;2022-09-01T15:17:35;3.77;;;0.80;;
1625;SDS011;806;48.770;9.156;2022-09-01T15:20:02;2.37;;;0.70;;
1625;SDS011;806;48.770;9.156;2022-09-01T15:22:44;1.00;;;0.70;;
1625;SDS011;806;48.770;9.156;2022-09-01T15:25:11;0.90;;;0.70;;
1625;SDS011;806;48.770;9.156;2022-09-01T15:27:39;2.93;;;0.90;;
1625;SDS011;806;48.770;9.156;2022-09-01T15:30:07;0.80;;;0.80;;
1625;SDS011;806;48.770;9.156;2022-09-01T15:32:41;1.23;;;0.80;;
1625;SDS011;806;48.770;9.156;2022-09-01T15:35:08;0.90;;;0.70;;
1625;SDS011;806;48.770;9.156;2022-09-01T15:37:36;0.90;;;0.70;;
1625;SDS011;806;48.770;9.156;2022-09-01T15:40:03;0.90;;;0.70;;
1625;SDS011;806;48.770;9.156;2022-09-01T15:42:31;0.90;;;0.80;;
1625;SDS011;806;48.770;9.156;2022-09-01T15:45:01;0.93;;;0.80;;
1625;SDS011;806;48.770;9.156;2022-09-01T15:47:29;1.70;;;0.80;;
1625;SDS011;806;48.770;9.156;2022-09-01T15:49:57;1.10;;;0.90;;
1625;SDS011;806;48.770;9.156;2022-09-01T15:52:24;1.30;;;0.80;;
1625;SDS011;806;48.770;9.156;2022-09-01T15:54:54;1.00;;;0.70;;
1625;SDS011;806;48.770;9.156;2022-09-01T15:57:21;1.00;;;0.80;;
1625;SDS011;806;48.770;9.156;2022-09-01T15:59:47;1.00;;;0.80;;
1625;SDS011;806;48.770;9.156;2022-09-01T16:02:16;0.90;;;0.73;;
1625;SDS011;806;48.770;9.156;2022-09-01T16:04:51;0.70;;;0.60;;
1625;SDS011;806;48.770;9.156;2022-09-01T16:07:20;1.40;;;0.80;;
1625;SDS011;806;48.770;9.156;2022-09-01T16:09:48;0.80;;;0.70;;
1625;SDS011;806;48.770;9.156;2022-09-01T16:12:16;0.70;;;0.70;;
1625;SDS011;806;48.770;9.156;2022-09-01T16:14:45;1.93;;;0.70;;